JP-0076 weather

Kochi Medical School Hospital Helipad
Kochi, Kōchi Prefecture, Japan

Public forecast

Using degrees Celsius for public forecast. Weather courtesy of forecast.io.

Closest aviation weather report (METAR) to Kochi Medical School Hospital Helipad

Report is more than 2 hours old.

Closest report is Kōchi Ryōma Airport, 4.0 nm (7.4 km) SE. Retrieved 2019/10/14 11:00 UTC (3 hours ago):

RJOK 141100Z 34004KT 9999 FEW020 SCT035 BKN070 21/13 Q1018

Closest aviation forecast (TAF) to Kochi Medical School Hospital Helipad

Closest forecast is Kōchi Ryōma Airport, 4.0 nm (7.4 km) SE. Retrieved 2019/10/14 12:30 UTC (2 hours ago):

TAF RJOK 141109Z 1412/1518 35012KT 9999 FEW020 BKN050 TEMPO 1500/1506 35016G27KT